Time;durP1;ratioP1;P1;durP2;ratioP2;P2;SDS_P1;SDS_P2;PMS_P1;PMS_P2;Temp;Humidity;BMP_temperature;BMP_pressure;BME280_temperature;BME280_humidity;BME280_pressure;Samples;Min_cycle;Max_cycle;Signal;HPM_P1;HPM_P2
2022/05/03 00:00:18;;;;;;;7.18;5.07;;;;;;;27.81;18.14;98013.31;5066548;28;20474;-77
2022/05/03 00:03:13;;;;;;;7.55;4.55;;;;;;;27.91;17.39;98008.53;5066936;28;20052;-77
2022/05/03 00:05:57;;;;;;;10.20;5.10;;;;;;;28.10;17.11;98013.03;5067878;28;20442;-77
2022/05/03 00:08:48;;;;;;;7.78;4.45;;;;;;;27.73;17.38;98002.75;5066423;28;20473;-77
2022/05/03 00:11:28;;;;;;;7.65;5.18;;;;;;;27.92;17.28;98001.63;5063413;28;20032;-77
2022/05/03 00:14:13;;;;;;;7.63;5.40;;;;;;;28.12;17.55;98004.09;5067299;28;20029;-77
2022/05/03 00:16:39;;;;;;;10.63;5.57;;;;;;;28.34;17.35;98004.81;5063462;28;20078;-77
2022/05/03 00:19:06;;;;;;;8.15;5.18;;;;;;;28.22;17.39;98009.31;5061510;28;20025;-77
2022/05/03 00:21:34;;;;;;;6.63;4.18;;;;;;;28.01;17.26;98004.50;5065890;28;20029;-77
2022/05/03 00:24:01;;;;;;;6.22;4.18;;;;;;;27.93;17.35;98001.16;5065689;28;20025;-77
2022/05/03 00:26:29;;;;;;;8.65;5.78;;;;;;;28.03;17.56;98014.09;5064997;28;20051;-77
2022/05/03 00:28:57;;;;;;;7.28;4.55;;;;;;;28.05;17.37;97999.53;5064151;28;20036;-77
2022/05/03 00:31:24;;;;;;;7.30;4.90;;;;;;;27.98;17.70;98006.19;5063817;28;20520;-77
2022/05/03 00:33:51;;;;;;;8.70;5.10;;;;;;;27.67;18.00;97996.94;5069386;28;20032;-78
2022/05/03 00:36:17;;;;;;;9.75;5.78;;;;;;;27.42;18.26;98010.38;5065677;28;20389;-77
2022/05/03 00:38:43;;;;;;;8.27;5.72;;;;;;;27.65;18.14;97993.78;5061767;28;20036;-77
2022/05/03 00:41:14;;;;;;;8.52;5.32;;;;;;;27.76;17.70;98005.44;5063429;28;20044;-77
2022/05/03 00:43:52;;;;;;;6.22;4.55;;;;;;;27.95;17.35;97998.66;5065648;28;20035;-77
2022/05/03 00:46:23;;;;;;;9.07;5.50;;;;;;;28.08;16.86;97993.75;5062884;28;20047;-77
2022/05/03 00:49:13;;;;;;;;;;;;;;;28.05;18.23;97994.66;5069080;28;20394;-77
2022/05/03 00:51:58;;;;;;;8.97;5.80;;;;;;;28.22;17.22;97991.59;5066161;28;19920;-77
2022/05/03 00:54:52;;;;;;;8.63;5.45;;;;;;;28.18;16.93;97991.75;5062836;28;20176;-77
2022/05/03 00:57:41;;;;;;;10.18;5.72;;;;;;;28.22;16.76;97992.38;5062911;28;20037;-77
2022/05/03 01:00:10;;;;;;;6.72;4.82;;;;;;;27.92;17.57;97993.16;5060265;28;20028;-77
2022/05/03 01:03:01;;;;;;;9.07;5.68;;;;;;;27.77;17.34;97998.53;5062210;28;20040;-77
2022/05/03 01:05:32;;;;;;;9.45;4.95;;;;;;;27.91;17.37;97995.19;5060190;28;20105;-77
2022/05/03 01:08:07;;;;;;;9.48;5.50;;;;;;;27.96;17.00;97988.16;5066257;28;20126;-77
2022/05/03 01:10:34;;;;;;;7.47;5.25;;;;;;;27.95;17.30;97995.84;5066904;28;20021;-78
2022/05/03 01:13:24;;;;;;;8.85;5.82;;;;;;;28.03;17.46;97996.38;5060431;28;20048;-77
2022/05/03 01:15:59;;;;;;;9.27;5.40;;;;;;;28.07;17.25;97991.38;5063560;28;20363;-78
2022/05/03 01:18:44;;;;;;;9.98;4.75;;;;;;;27.73;17.33;97991.47;5061814;28;20028;-77
2022/05/03 01:21:18;;;;;;;9.10;5.93;;;;;;;27.56;17.74;97995.75;5063220;28;20029;-77
2022/05/03 01:24:03;;;;;;;7.82;4.68;;;;;;;27.63;17.69;97993.47;5063699;28;20040;-77
2022/05/03 01:26:32;;;;;;;8.48;4.40;;;;;;;27.72;17.56;97990.69;5057907;28;20433;-77
2022/05/03 01:29:33;;;;;;;5.75;5.00;;;;;;;27.73;17.47;97994.28;5058520;28;20123;-77
2022/05/03 01:32:02;;;;;;;7.13;5.13;;;;;;;27.59;17.94;97997.66;5060446;28;20131;-77
2022/05/03 01:34:30;;;;;;;9.02;5.00;;;;;;;27.48;17.68;98002.91;5057731;28;20083;-77
2022/05/03 01:37:24;;;;;;;7.45;4.85;;;;;;;27.42;17.51;98004.75;5055924;28;20043;-77
2022/05/03 01:40:04;;;;;;;9.23;5.50;;;;;;;27.64;17.56;97999.88;5051267;28;20154;-77
2022/05/03 01:42:39;;;;;;;9.35;5.32;;;;;;;27.84;17.46;98006.75;5052999;28;20421;-77
2022/05/03 01:45:07;;;;;;;6.13;4.35;;;;;;;27.99;17.22;97998.53;5049363;28;20040;-77
2022/05/03 01:47:59;;;;;;;7.50;4.38;;;;;;;27.87;17.37;98002.22;5051327;28;20041;-78
2022/05/03 01:50:38;;;;;;;8.23;5.07;;;;;;;27.28;18.02;98003.22;5052476;28;20028;-77
2022/05/03 01:53:12;;;;;;;7.03;4.53;;;;;;;27.08;18.05;98000.69;5052562;28;20109;-77
2022/05/03 01:56:05;;;;;;;6.90;4.70;;;;;;;27.13;18.07;98014.19;5049207;28;20032;-77
2022/05/03 01:58:59;;;;;;;9.10;5.72;;;;;;;27.59;17.62;98006.91;5054316;28;20127;-76
2022/05/03 02:01:43;;;;;;;6.90;5.68;;;;;;;27.88;17.95;98004.59;5049222;28;20116;-76
2022/05/03 02:04:46;;;;;;;10.45;5.10;;;;;;;27.42;18.07;97997.84;5049762;28;20114;-76
2022/05/03 02:07:34;;;;;;;7.10;4.30;;;;;;;27.66;17.94;98000.19;5046954;28;20123;-77
2022/05/03 02:10:26;;;;;;;7.35;5.07;;;;;;;28.00;17.82;97995.28;5034186;28;20056;-76
2022/05/03 02:13:02;;;;;;;5.95;4.78;;;;;;;27.94;17.47;97999.91;5050558;28;20105;-76
2022/05/03 02:15:45;;;;;;;7.60;4.93;;;;;;;27.69;17.37;97993.66;5050613;28;20102;-76
2022/05/03 02:18:35;;;;;;;8.50;4.60;;;;;;;27.96;17.68;97996.63;5048977;28;20028;-78
2022/05/03 02:21:25;;;;;;;7.40;5.00;;;;;;;27.74;18.06;97995.88;5056817;28;20035;-79
2022/05/03 02:24:16;;;;;;;9.52;4.78;;;;;;;27.84;17.57;97991.88;5060530;28;20029;-76
2022/05/03 02:27:01;;;;;;;6.18;4.68;;;;;;;27.82;18.00;97988.72;5058189;28;20087;-76
2022/05/03 02:29:35;;;;;;;11.25;5.18;;;;;;;27.87;17.54;97985.28;5056477;28;20413;-76
2022/05/03 02:32:10;;;;;;;7.75;4.55;;;;;;;27.95;17.75;97989.41;5066504;28;20071;-77
2022/05/03 02:34:48;;;;;;;6.65;4.47;;;;;;;27.74;17.91;97981.78;5058964;28;20032;-76
2022/05/03 02:37:31;;;;;;;7.00;4.72;;;;;;;27.96;17.59;97983.28;5059556;28;20445;-76
2022/05/03 02:39:59;;;;;;;8.00;4.95;;;;;;;27.63;18.44;97985.00;5058460;28;20028;-76
2022/05/03 02:42:26;;;;;;;7.70;5.07;;;;;;;27.14;18.77;97995.25;5043780;28;20135;-77
2022/05/03 02:44:56;;;;;;;7.80;5.25;;;;;;;27.36;18.15;97985.56;5061008;28;20478;-76
2022/05/03 02:47:31;;;;;;;7.90;5.30;;;;;;;27.54;18.15;97993.38;5060326;28;20478;-77
2022/05/03 02:50:25;;;;;;;5.10;3.92;;;;;;;27.67;18.04;97987.69;5060299;28;20040;-77
2022/05/03 02:53:08;;;;;;;8.05;4.78;;;;;;;27.93;17.94;97992.72;5061464;28;20040;-76
2022/05/03 02:55:58;;;;;;;6.35;4.35;;;;;;;27.48;17.63;97994.44;5060294;28;20532;-77
2022/05/03 02:58:42;;;;;;;7.25;4.45;;;;;;;26.82;18.56;97998.38;5059848;28;20029;-76
2022/05/03 03:01:47;;;;;;;6.32;4.72;;;;;;;26.14;19.53;97987.75;5062479;28;20032;-76
2022/05/03 03:04:55;;;;;;;9.70;4.88;;;;;;;26.28;19.42;97988.06;5063236;28;20051;-76
2022/05/03 03:07:22;;;;;;;6.40;3.60;;;;;;;26.61;19.52;97983.75;5053525;28;20044;-76
2022/05/03 03:09:56;;;;;;;7.50;3.67;;;;;;;26.82;19.33;97978.66;5062802;28;20032;-76
2022/05/03 03:12:47;;;;;;;7.03;4.15;;;;;;;27.04;19.25;97985.13;5060518;28;20049;-76
2022/05/03 03:15:15;;;;;;;6.22;3.85;;;;;;;27.28;18.80;97980.66;5063428;28;20051;-76
2022/05/03 03:17:50;;;;;;;5.40;4.03;;;;;;;27.54;18.23;97984.16;5064821;28;20020;-76
2022/05/03 03:20:22;;;;;;;5.97;4.10;;;;;;;27.24;18.77;97985.63;5062284;28;20078;-75
2022/05/03 03:22:49;;;;;;;6.63;4.60;;;;;;;27.08;19.10;97985.78;5062214;28;20078;-75
2022/05/03 03:25:17;;;;;;;7.18;4.05;;;;;;;27.33;18.85;97983.66;5065570;28;20379;-76
2022/05/03 03:27:45;;;;;;;7.57;4.57;;;;;;;27.58;18.76;97979.97;5064463;28;20036;-76
2022/05/03 03:30:13;;;;;;;6.03;4.20;;;;;;;27.64;18.62;97986.56;5059428;28;20036;-76
2022/05/03 03:32:42;;;;;;;8.43;5.28;;;;;;;27.71;18.69;97985.50;5058006;28;20032;-76
2022/05/03 03:35:11;;;;;;;7.35;4.55;;;;;;;27.77;18.76;97995.72;5059434;28;20082;-76
2022/05/03 03:37:41;;;;;;;8.18;4.47;;;;;;;28.08;18.29;97993.75;5043227;28;20082;-76
2022/05/03 03:40:08;;;;;;;7.60;5.18;;;;;;;28.24;18.56;97997.56;5059229;28;20233;-76
2022/05/03 03:42:34;;;;;;;6.05;3.95;;;;;;;27.66;18.48;97991.72;5057912;28;20101;-76
2022/05/03 03:45:02;;;;;;;5.95;3.90;;;;;;;27.17;19.04;98003.56;5061421;28;20155;-76
2022/05/03 03:47:30;;;;;;;5.97;4.22;;;;;;;27.57;18.57;98000.94;5061738;28;20045;-76
2022/05/03 03:49:57;;;;;;;8.27;4.72;;;;;;;27.96;18.63;97997.41;5065379;28;20021;-76
2022/05/03 03:52:25;;;;;;;8.38;4.13;;;;;;;28.30;18.03;98002.16;5061555;28;20040;-76
2022/05/03 03:54:52;;;;;;;6.35;3.67;;;;;;;28.23;18.48;97996.00;5065495;28;20027;-76
2022/05/03 03:57:23;;;;;;;6.25;4.40;;;;;;;27.81;18.95;98006.88;5063935;28;20402;-76
2022/05/03 03:59:49;;;;;;;;;;;;;;;27.51;19.92;97999.97;5064069;28;20025;-76
2022/05/03 04:02:16;;;;;;;6.57;4.72;;;;;;;27.69;20.05;98000.06;5064166;28;19913;-76
2022/05/03 04:04:44;;;;;;;5.95;3.90;;;;;;;28.32;19.45;98001.69;5061420;28;20039;-76
2022/05/03 04:07:10;;;;;;;5.47;4.15;;;;;;;28.78;18.90;98002.66;5060206;28;20086;-78
2022/05/03 04:09:37;;;;;;;6.30;4.03;;;;;;;29.11;18.39;97995.91;5062488;28;20485;-77
2022/05/03 04:12:05;;;;;;;6.30;4.00;;;;;;;28.93;18.16;98000.78;5065492;28;20140;-77
2022/05/03 04:14:31;;;;;;;6.03;3.63;;;;;;;28.32;18.80;98001.69;5064699;28;20074;-77
2022/05/03 04:16:59;;;;;;;5.80;4.38;;;;;;;27.97;19.34;97999.00;5066914;28;20111;-76
2022/05/03 04:19:25;;;;;;;5.82;3.67;;;;;;;28.08;18.99;98007.84;5063930;28;20032;-77
2022/05/03 04:21:51;;;;;;;4.95;3.75;;;;;;;27.77;19.42;98007.00;5061890;28;20046;-77
2022/05/03 04:24:18;;;;;;;6.18;4.60;;;;;;;27.34;19.84;98007.78;5065165;28;20033;-77
2022/05/03 04:26:44;;;;;;;5.28;4.03;;;;;;;27.44;19.40;98014.31;5066566;28;20041;-78
2022/05/03 04:29:10;;;;;;;6.15;4.28;;;;;;;27.77;19.56;98012.66;5050686;28;20501;-76
2022/05/03 04:31:37;;;;;;;5.72;4.18;;;;;;;28.22;19.11;98011.34;5064034;28;20028;-76
2022/05/03 04:34:04;;;;;;;7.32;4.38;;;;;;;28.75;18.57;98013.59;5062149;28;20105;-78
2022/05/03 04:36:32;;;;;;;6.00;4.05;;;;;;;29.14;18.23;98009.13;5064630;28;20099;-77
2022/05/03 04:38:59;;;;;;;7.07;4.15;;;;;;;28.61;19.50;98008.53;5062152;28;20044;-76
2022/05/03 04:41:29;;;;;;;7.28;4.70;;;;;;;27.95;19.73;98012.00;5063363;28;20498;-77
2022/05/03 04:43:55;;;;;;;6.68;4.22;;;;;;;27.98;19.78;98022.38;5063376;28;20032;-77
2022/05/03 04:46:22;;;;;;;6.55;3.72;;;;;;;28.23;19.87;98024.22;5062320;28;20029;-77
2022/05/03 04:48:48;;;;;;;4.50;3.35;;;;;;;28.71;18.85;98015.78;5067444;28;20111;-78
2022/05/03 04:51:22;;;;;;;6.07;3.35;;;;;;;28.52;18.81;98016.97;5063147;28;20509;-77
2022/05/03 04:53:49;;;;;;;7.63;3.17;;;;;;;28.85;19.54;98031.38;5062001;28;20047;-77
2022/05/03 04:56:23;;;;;;;7.63;4.22;;;;;;;28.65;19.93;98023.31;5058888;28;20072;-76
2022/05/03 04:58:50;;;;;;;4.60;3.03;;;;;;;28.94;19.74;98025.72;5054359;28;20037;-79
2022/05/03 05:01:17;;;;;;;4.57;4.03;;;;;;;29.26;19.39;98021.56;5064774;28;20059;-77
2022/05/03 05:03:44;;;;;;;5.30;3.90;;;;;;;29.47;19.02;98022.66;5059236;28;20486;-76
2022/05/03 05:06:11;;;;;;;7.68;4.80;;;;;;;29.53;19.02;98023.59;5061737;28;20040;-77
2022/05/03 05:08:39;;;;;;;5.97;4.25;;;;;;;29.14;19.33;98028.13;5065685;28;20160;-77
2022/05/03 05:11:06;;;;;;;8.07;4.35;;;;;;;28.89;19.72;98028.41;5066289;28;20040;-76
2022/05/03 05:13:33;;;;;;;6.13;4.65;;;;;;;28.89;19.85;98025.56;5062198;28;20127;-77
2022/05/03 05:16:02;;;;;;;5.60;4.25;;;;;;;29.28;19.63;98017.00;5062993;28;20060;-77
2022/05/03 05:18:28;;;;;;;6.15;4.68;;;;;;;29.50;19.64;98025.31;5061731;28;20029;-79
2022/05/03 05:20:54;;;;;;;7.15;4.95;;;;;;;29.88;20.01;98022.00;5066200;28;20036;-77
2022/05/03 05:23:23;;;;;;;7.05;4.43;;;;;;;30.03;19.37;98018.03;5063360;28;20447;-76
2022/05/03 05:25:50;;;;;;;5.50;4.57;;;;;;;30.33;19.12;98024.72;5062526;28;20131;-78
2022/05/03 05:28:17;;;;;;;4.18;3.47;;;;;;;30.34;18.46;98025.53;5061702;28;20068;-79
2022/05/03 05:30:48;;;;;;;5.43;4.22;;;;;;;30.32;19.85;98008.16;5045141;28;20051;-79
2022/05/03 05:33:15;;;;;;;7.43;4.90;;;;;;;30.64;19.59;97996.84;5067724;28;20051;-79
2022/05/03 05:35:42;;;;;;;5.75;5.05;;;;;;;30.76;18.71;98003.56;5063137;28;20058;-79
2022/05/03 05:38:08;;;;;;;6.95;4.32;;;;;;;30.76;19.46;97987.34;5061317;28;20040;-79
2022/05/03 05:40:38;;;;;;;6.80;3.75;;;;;;;30.54;19.02;97984.03;5063021;28;20110;-79
2022/05/03 05:43:04;;;;;;;5.10;4.38;;;;;;;29.99;19.82;97994.00;5059987;28;20139;-79
2022/05/03 05:45:33;;;;;;;4.78;3.60;;;;;;;30.03;19.92;97994.59;5064685;28;20039;-79
2022/05/03 05:47:59;;;;;;;5.95;4.10;;;;;;;30.18;19.26;97983.38;5065969;28;20040;-79
2022/05/03 05:50:25;;;;;;;6.05;3.38;;;;;;;30.36;19.69;97983.34;5065939;28;20032;-79
2022/05/03 05:55:38;;;;;;;4.95;3.65;;;;;;;31.02;19.13;97990.50;5065448;28;20044;-77
2022/05/03 05:58:05;;;;;;;5.20;4.03;;;;;;;30.04;19.46;97996.16;5065321;28;20036;-77
2022/05/03 06:00:31;;;;;;;6.68;3.38;;;;;;;30.46;19.84;97993.34;5064565;28;20021;-77
2022/05/03 06:03:01;;;;;;;3.85;3.28;;;;;;;31.14;19.90;98000.03;5063663;28;20024;-79
2022/05/03 06:05:33;;;;;;;4.65;3.53;;;;;;;31.79;18.34;98005.47;5065362;28;20040;-77
2022/05/03 06:08:03;;;;;;;6.18;4.22;;;;;;;31.59;18.54;98013.09;5064673;28;20055;-77
2022/05/03 06:10:29;;;;;;;4.63;3.00;;;;;;;31.73;18.35;98013.09;5060640;28;20106;-78
2022/05/03 06:12:55;;;;;;;4.20;3.22;;;;;;;31.71;17.52;98015.66;5042024;28;20476;-77
2022/05/03 06:15:21;;;;;;;3.17;2.67;;;;;;;32.00;17.83;98024.19;5065622;28;20047;-77
2022/05/03 06:17:47;;;;;;;4.28;2.85;;;;;;;31.95;17.59;98019.16;5065104;28;20124;-77
2022/05/03 06:20:13;;;;;;;4.88;3.95;;;;;;;31.65;17.86;98022.50;5045545;28;20055;-77
2022/05/03 06:22:39;;;;;;;4.40;3.42;;;;;;;31.52;18.43;98028.44;5064174;28;20132;-78
2022/05/03 06:25:08;;;;;;;3.83;3.03;;;;;;;31.52;18.03;98025.59;5052629;28;20423;-77
2022/05/03 06:27:35;;;;;;;3.42;2.88;;;;;;;31.98;18.29;98026.75;5063655;28;20181;-77
2022/05/03 06:30:02;;;;;;;3.47;3.00;;;;;;;32.22;18.23;98020.19;5064243;28;20052;-77
2022/05/03 06:32:28;;;;;;;3.97;2.25;;;;;;;32.62;17.53;98026.03;5063387;28;20089;-77
2022/05/03 06:34:54;;;;;;;2.95;2.38;;;;;;;33.08;16.98;98029.03;5065728;28;20082;-77
2022/05/03 06:37:20;;;;;;;3.30;2.58;;;;;;;33.33;16.73;98026.25;5065010;28;20040;-77
2022/05/03 06:39:46;;;;;;;3.25;2.17;;;;;;;33.30;15.94;98032.94;5062628;28;20036;-77
2022/05/03 06:42:13;;;;;;;3.70;2.42;;;;;;;33.21;16.93;98029.47;5062614;28;20043;-77
2022/05/03 06:44:39;;;;;;;5.28;2.70;;;;;;;33.29;16.20;98028.53;5038093;28;20044;-79
2022/05/03 06:47:06;;;;;;;2.95;2.38;;;;;;;33.37;16.20;98018.28;5063992;28;20039;-77
2022/05/03 06:49:32;;;;;;;4.03;2.55;;;;;;;33.48;16.54;98020.47;5063312;28;20537;-78
2022/05/03 06:51:59;;;;;;;2.42;2.22;;;;;;;33.69;15.94;98021.25;5061469;28;20367;-78
2022/05/03 06:54:25;;;;;;;3.55;2.50;;;;;;;33.57;16.96;98014.66;5064923;28;20024;-76
2022/05/03 06:56:51;;;;;;;4.50;2.88;;;;;;;33.96;17.10;98017.91;5061894;28;20029;-76
2022/05/03 06:59:17;;;;;;;4.80;2.42;;;;;;;34.51;16.80;98015.56;5061061;28;20029;-76
2022/05/03 07:01:46;;;;;;;2.97;2.10;;;;;;;34.72;15.94;98014.19;5064249;28;20060;-77
2022/05/03 07:04:12;;;;;;;2.78;2.10;;;;;;;34.98;15.75;98005.53;5064044;28;20032;-77
2022/05/03 07:06:38;;;;;;;4.57;2.17;;;;;;;35.18;15.55;98010.28;5065294;28;20119;-77
2022/05/03 07:09:06;;;;;;;3.42;2.30;;;;;;;35.27;15.86;98007.22;5065243;28;20064;-77
2022/05/03 07:11:33;;;;;;;2.65;2.42;;;;;;;35.13;15.80;98008.97;5063766;28;20039;-77
2022/05/03 07:14:01;;;;;;;2.38;2.17;;;;;;;35.04;16.37;98009.19;5044915;28;20044;-77
2022/05/03 07:16:28;;;;;;;3.40;2.20;;;;;;;35.14;15.22;97999.13;5064787;28;20033;-78
2022/05/03 07:24:25;;;;;;;2.28;1.67;;;;;;;34.87;16.36;98005.44;5068890;28;20453;-79
2022/05/03 07:26:51;;;;;;;1.80;1.52;;;;;;;35.25;16.11;98006.94;5068015;28;20093;-78
2022/05/03 07:29:17;;;;;;;2.67;2.15;;;;;;;35.27;15.17;98010.06;5069062;28;20071;-78
2022/05/03 07:31:43;;;;;;;2.28;2.08;;;;;;;35.31;15.89;97999.97;5062965;28;20039;-79
2022/05/03 07:34:10;;;;;;;1.98;1.80;;;;;;;35.55;14.59;98005.28;5067935;28;20037;-78
2022/05/03 07:36:36;;;;;;;2.42;1.90;;;;;;;35.36;15.41;98007.00;5068996;28;20127;-79
2022/05/03 07:39:02;;;;;;;2.70;1.77;;;;;;;35.31;14.68;98005.69;5067860;28;20143;-78
2022/05/03 07:41:29;;;;;;;3.22;1.45;;;;;;;35.10;15.35;98004.28;5067471;28;20082;-78
2022/05/03 07:43:55;;;;;;;1.83;1.52;;;;;;;35.29;14.68;98007.47;5066098;28;20041;-79
2022/05/03 07:46:24;;;;;;;1.45;1.35;;;;;;;35.56;15.39;98009.69;5071833;28;20105;-79
2022/05/03 07:48:54;;;;;;;2.15;1.85;;;;;;;35.53;14.52;98012.78;5067657;28;20101;-79
2022/05/03 07:51:21;;;;;;;2.08;1.60;;;;;;;35.50;14.72;98019.53;5067641;28;20427;-78
2022/05/03 07:53:47;;;;;;;2.03;1.80;;;;;;;35.75;15.29;98010.00;5067341;28;20044;-78
2022/05/03 07:56:13;;;;;;;1.20;1.10;;;;;;;36.14;14.81;98007.22;5066382;28;20397;-78
2022/05/03 07:58:39;;;;;;;1.80;1.65;;;;;;;36.35;14.39;98011.38;5051696;28;20458;-79
2022/05/03 08:01:05;;;;;;;1.88;1.67;;;;;;;36.51;14.85;98014.25;5068499;28;20501;-79
2022/05/03 08:03:32;;;;;;;1.15;1.10;;;;;;;36.50;15.13;98017.66;5064321;28;20107;-79
2022/05/03 08:05:58;;;;;;;1.67;1.02;;;;;;;35.63;13.00;98017.78;5068284;28;20029;-78
2022/05/03 08:08:24;;;;;;;2.92;1.30;;;;;;;34.85;14.01;98022.28;5067254;28;20370;-79
2022/05/03 08:10:50;;;;;;;2.60;1.73;;;;;;;34.80;14.46;98028.72;5067023;28;20035;-78
2022/05/03 08:13:16;;;;;;;3.38;1.73;;;;;;;34.52;14.60;98028.56;5069097;28;20405;-77
2022/05/03 08:15:43;;;;;;;4.10;2.03;;;;;;;34.44;15.47;98024.59;5069466;28;20078;-78
2022/05/03 08:18:09;;;;;;;2.10;1.90;;;;;;;34.06;15.79;98022.97;5066678;28;20040;-78
2022/05/03 08:20:35;;;;;;;4.47;2.92;;;;;;;33.63;16.65;98028.97;5064670;28;20040;-79
2022/05/03 08:23:01;;;;;;;4.25;2.58;;;;;;;33.18;16.26;98031.25;5047893;28;20021;-78
2022/05/03 08:25:28;;;;;;;3.17;2.10;;;;;;;33.67;16.58;98029.53;5066215;28;20040;-79
2022/05/03 08:27:55;;;;;;;2.40;2.20;;;;;;;34.03;15.74;98037.44;5065116;28;20047;-79
2022/05/03 08:30:21;;;;;;;2.53;2.30;;;;;;;33.50;16.24;98031.34;5065609;28;20024;-78
2022/05/03 08:32:47;;;;;;;3.55;2.97;;;;;;;33.17;16.13;98034.56;5067825;28;20036;-78
2022/05/03 08:35:14;;;;;;;2.83;2.40;;;;;;;33.33;16.48;98049.03;5062522;28;20037;-79
2022/05/03 08:43:09;;;;;;;4.18;3.53;;;;;;;33.13;16.16;98039.72;5063730;28;20047;-78
2022/05/03 08:45:35;;;;;;;3.13;2.83;;;;;;;32.63;16.52;98048.28;5061887;28;20140;-78
2022/05/03 08:48:02;;;;;;;3.22;2.50;;;;;;;33.23;16.97;98041.94;5067456;28;20029;-79
2022/05/03 08:50:40;;;;;;;4.90;3.25;;;;;;;33.20;17.06;98054.31;5067327;28;20036;-79
2022/05/03 08:53:06;;;;;;;4.20;3.42;;;;;;;31.75;17.95;98033.28;5066678;28;20031;-78
2022/05/03 08:55:33;;;;;;;3.22;2.92;;;;;;;32.36;17.64;98042.13;5067519;28;20037;-79
2022/05/03 08:57:59;;;;;;;3.65;3.28;;;;;;;32.77;16.96;98034.53;5066201;28;20033;-78
2022/05/03 09:00:25;;;;;;;3.83;3.28;;;;;;;33.04;16.25;98043.47;5065558;28;20032;-79
2022/05/03 09:02:56;;;;;;;4.18;3.30;;;;;;;33.24;16.57;98043.47;5066912;28;20060;-79
2022/05/03 09:05:24;;;;;;;4.20;3.00;;;;;;;33.35;16.79;98040.00;5046097;28;20134;-79
2022/05/03 09:07:55;;;;;;;4.93;3.00;;;;;;;33.49;17.16;98042.00;5067499;28;20029;-79
2022/05/03 09:10:22;;;;;;;3.38;3.08;;;;;;;33.68;16.61;98036.81;5064672;28;20123;-80
2022/05/03 09:12:50;;;;;;;3.40;3.03;;;;;;;34.53;16.21;98040.75;5062148;28;20059;-79
2022/05/03 09:15:32;;;;;;;6.70;3.38;;;;;;;34.10;15.23;98039.81;5066424;28;20029;-79
2022/05/03 09:17:58;;;;;;;3.60;2.63;;;;;;;34.90;15.44;98037.88;5066117;28;20052;-79
2022/05/03 09:26:12;;;;;;;2.83;2.53;;;;;;;33.48;16.06;98031.09;5063482;28;20421;-78
2022/05/03 09:28:57;;;;;;;3.42;3.13;;;;;;;33.40;16.56;98033.56;5068512;28;20385;-78
2022/05/03 09:31:43;;;;;;;2.70;2.38;;;;;;;34.36;15.54;98029.19;5048173;28;20032;-79
2022/05/03 09:34:26;;;;;;;5.35;3.30;;;;;;;35.13;14.26;98019.63;5062671;28;20427;-81
2022/05/03 09:36:58;;;;;;;2.55;2.35;;;;;;;33.61;15.77;98032.31;5065451;28;20033;-80
2022/05/03 09:39:30;;;;;;;5.00;3.63;;;;;;;33.43;15.43;98021.97;5063040;28;20068;-80
2022/05/03 09:42:13;;;;;;;3.58;2.13;;;;;;;34.24;15.62;98021.06;5062988;28;20048;-79
2022/05/03 09:44:58;;;;;;;2.67;2.42;;;;;;;35.15;14.45;98014.19;5062706;28;20037;-79
2022/05/03 09:47:33;;;;;;;2.70;2.25;;;;;;;35.50;13.32;98005.25;5065310;28;20135;-78
2022/05/03 09:49:59;;;;;;;3.58;2.10;;;;;;;35.23;14.37;98009.53;5063583;28;20255;-77
2022/05/03 09:52:36;;;;;;;2.38;2.15;;;;;;;35.50;13.70;98010.97;5062967;28;20036;-77
2022/05/03 09:55:08;;;;;;;5.60;2.10;;;;;;;34.63;14.37;98007.91;5069791;28;20021;-78
2022/05/03 09:57:44;;;;;;;1.92;1.80;;;;;;;35.10;13.69;98000.69;5070703;28;20021;-78
2022/05/03 10:00:12;;;;;;;2.17;1.98;;;;;;;35.26;13.66;98006.47;5072586;28;20090;-80
2022/05/03 10:02:42;;;;;;;2.10;1.85;;;;;;;34.96;13.66;97996.66;5071671;28;20028;-79
2022/05/03 10:05:14;;;;;;;1.75;1.65;;;;;;;34.69;13.61;98006.63;5065999;28;20045;-76
2022/05/03 10:07:44;;;;;;;3.00;1.73;;;;;;;33.80;14.50;98009.97;5064215;28;20245;-76
2022/05/03 10:10:12;;;;;;;1.95;1.83;;;;;;;33.63;14.25;98015.50;5051245;28;20032;-77
2022/05/03 10:12:38;;;;;;;1.90;1.80;;;;;;;34.44;14.59;98001.00;5069054;28;20111;-78
2022/05/03 10:15:05;;;;;;;2.03;1.77;;;;;;;35.42;13.87;97999.25;5070921;28;20047;-80
2022/05/03 10:20:39;;;;;;;1.60;1.50;;;;;;;34.59;14.24;98002.41;5065242;28;20127;-79
2022/05/03 10:23:23;;;;;;;1.90;1.70;;;;;;;35.14;12.68;98004.84;5063690;28;20111;-80
2022/05/03 10:25:50;;;;;;;2.20;1.88;;;;;;;35.16;12.20;97992.91;5062333;28;20039;-79
2022/05/03 10:28:17;;;;;;;3.60;1.55;;;;;;;35.72;11.79;97991.03;5066857;28;20043;-80
2022/05/03 10:31:07;;;;;;;2.13;1.63;;;;;;;34.73;11.49;97978.66;5047743;28;20028;-81
2022/05/03 10:33:35;;;;;;;2.10;1.48;;;;;;;34.83;13.42;97984.94;5062198;28;20127;-80
2022/05/03 10:36:02;;;;;;;1.88;1.70;;;;;;;35.45;11.51;97977.44;5051818;28;20028;-79
2022/05/03 10:38:37;;;;;;;1.50;1.20;;;;;;;35.57;12.25;97976.22;5072611;28;20040;-77
2022/05/03 10:41:05;;;;;;;1.40;1.30;;;;;;;35.47;11.93;97984.19;5069565;28;20033;-77
2022/05/03 10:43:33;;;;;;;1.30;1.20;;;;;;;35.43;12.11;97973.00;5068452;28;20033;-78
2022/05/03 10:46:09;;;;;;;1.45;1.35;;;;;;;36.73;12.14;97977.06;5071527;28;20032;-80
2022/05/03 10:48:36;;;;;;;1.70;1.50;;;;;;;34.90;13.80;97967.31;5069935;28;20036;-80
2022/05/03 10:51:04;;;;;;;1.30;1.10;;;;;;;35.99;13.01;97965.38;5067531;28;20034;-80
2022/05/03 10:53:35;;;;;;;2.28;1.63;;;;;;;36.37;12.43;97972.38;5049690;28;20497;-79
2022/05/03 10:56:23;;;;;;;1.40;1.30;;;;;;;35.86;12.74;97982.22;5068446;28;20025;-79
2022/05/03 10:59:10;;;;;;;1.75;1.20;;;;;;;34.95;12.42;97980.06;5070968;28;20056;-79
2022/05/03 11:01:55;;;;;;;2.67;1.63;;;;;;;34.06;14.12;97985.13;5072452;28;20035;-79
2022/05/03 11:04:22;;;;;;;4.93;2.67;;;;;;;32.50;15.91;97984.50;5070408;28;20070;-79
2022/05/03 11:06:52;;;;;;;3.28;2.83;;;;;;;31.77;17.13;97985.28;5071128;28;20037;-78
2022/05/03 11:09:25;;;;;;;5.85;4.43;;;;;;;30.05;18.66;97981.53;5074231;28;20032;-80
2022/05/03 11:11:53;;;;;;;7.07;4.10;;;;;;;30.03;20.05;97984.06;5074193;28;20043;-79
2022/05/03 11:14:19;;;;;;;4.75;4.13;;;;;;;29.41;19.67;97980.06;5073035;28;20055;-79
2022/05/03 11:17:02;;;;;;;4.85;3.63;;;;;;;29.70;19.56;97983.19;5072725;28;20040;-78
2022/05/03 11:19:33;;;;;;;3.20;2.90;;;;;;;30.75;18.33;97974.44;5055522;28;20036;-79
2022/05/03 11:22:13;;;;;;;2.70;2.50;;;;;;;32.22;15.72;97969.03;5072224;28;20052;-77
2022/05/03 11:24:46;;;;;;;4.85;2.45;;;;;;;32.66;15.23;97969.72;5071441;28;20070;-76
2022/05/03 11:27:14;;;;;;;2.97;2.67;;;;;;;30.17;17.73;97962.78;5068542;28;20108;-77
2022/05/03 11:29:46;;;;;;;3.95;2.55;;;;;;;28.91;19.35;97972.97;5071644;28;20519;-78
2022/05/03 11:32:14;;;;;;;2.90;2.63;;;;;;;30.91;17.29;97967.59;5073447;28;20032;-78
2022/05/03 11:34:41;;;;;;;4.10;3.20;;;;;;;30.46;17.72;97962.97;5041214;28;20056;-79
2022/05/03 11:37:08;;;;;;;4.72;3.33;;;;;;;29.94;17.60;97972.75;5073469;28;20036;-79
2022/05/03 11:39:38;;;;;;;3.60;3.30;;;;;;;31.70;16.36;97960.13;5050779;28;20139;-78
2022/05/03 11:42:08;;;;;;;5.80;3.67;;;;;;;30.72;16.75;97952.72;5070533;28;20040;-79
2022/05/03 11:44:36;;;;;;;4.33;2.70;;;;;;;30.37;17.33;97945.22;5068778;28;20033;-78
2022/05/03 11:47:03;;;;;;;4.53;3.58;;;;;;;31.08;16.58;97946.03;5068390;28;20047;-79
2022/05/03 11:49:31;;;;;;;5.43;2.88;;;;;;;31.09;17.08;97941.13;5064960;28;20033;-80
2022/05/03 11:57:34;;;;;;;2.88;2.60;;;;;;;34.00;14.02;97945.16;5065954;28;20131;-80
2022/05/03 12:00:03;;;;;;;3.03;2.80;;;;;;;33.02;14.50;97946.47;5068061;28;20043;-81
2022/05/03 12:02:43;;;;;;;3.05;2.67;;;;;;;32.29;15.90;97940.22;5065540;28;20036;-80
2022/05/03 12:05:21;;;;;;;3.25;2.95;;;;;;;32.92;14.85;97939.31;5071383;28;20036;-80
2022/05/03 12:07:48;;;;;;;3.85;2.75;;;;;;;32.88;15.26;97930.22;5066666;28;20040;-80
2022/05/03 12:10:19;;;;;;;3.47;2.72;;;;;;;34.43;14.23;97928.91;5066928;28;20067;-80
2022/05/03 12:12:46;;;;;;;3.55;3.05;;;;;;;32.85;15.30;97921.88;5048733;28;20045;-80
2022/05/03 12:15:16;;;;;;;5.68;3.80;;;;;;;31.08;16.65;97931.06;5069043;28;20035;-80
2022/05/03 12:18:03;;;;;;;5.53;4.07;;;;;;;30.33;17.24;97936.91;5066022;28;20121;-78
2022/05/03 12:20:47;;;;;;;5.65;4.40;;;;;;;31.50;15.83;97934.50;5069752;28;20107;-82
2022/05/03 12:23:22;;;;;;;2.90;2.60;;;;;;;33.14;14.94;97933.16;5067960;28;20033;-82